METAR Data
IDs: Format: Raw Decoded Include TAF

Data at: 1310 UTC 15 Jul 2020

KHZD 151255Z AUTO 00000KT 10SM SCT065 25/21 A3005 RMK A01
KHZD 151235Z AUTO 00000KT 10SM CLR 24/21 A3004 RMK A01
KHZD 151215Z AUTO 00000KT 10SM CLR 23/21 A3004 RMK A01
KHZD 151155Z AUTO 00000KT 10SM CLR 22/21 A3003 RMK A01
KHZD 151135Z AUTO 00000KT 10SM CLR 22/21 A3004 RMK A01
KHZD 151115Z AUTO 00000KT 10SM CLR 21/20 A3003 RMK A01
KHZD 151055Z AUTO 00000KT 10SM CLR 20/20 A3002 RMK A01
KHZD 151035Z AUTO 00000KT 10SM CLR 21/20 A3002 RMK A01
KHZD 151015Z AUTO 00000KT 10SM CLR 21/20 A3002 RMK A01
KHZD 150955Z AUTO 00000KT 10SM CLR 21/20 A3000 RMK A01
KHZD 150935Z AUTO 00000KT 10SM CLR 21/21 A3000 RMK A01
KHZD 150915Z AUTO 00000KT 10SM CLR 21/20 A2999 RMK A01
KHZD 150855Z AUTO 00000KT 10SM CLR 21/20 A3000 RMK A01
KHZD 150835Z AUTO 00000KT 10SM CLR 21/21 A3000 RMK A01
KHZD 150815Z AUTO 00000KT 10SM CLR 22/21 A3000 RMK A01
KHZD 150755Z AUTO 00000KT 10SM CLR 22/21 A3000 RMK A01
KHZD 150735Z AUTO 00000KT 10SM CLR 22/21 A2999 RMK A01
KHZD 150715Z AUTO 00000KT 10SM CLR 23/21 A2999 RMK A01
KHZD 150655Z AUTO 00000KT 10SM CLR 23/21 A2999 RMK A01
KHZD 150635Z AUTO 09003KT 10SM CLR 23/21 A2999 RMK A01
KHZD 150615Z AUTO 10003KT 10SM CLR 23/21 A3000 RMK A01
KHZD 150555Z AUTO 00000KT 10SM CLR 22/21 A3001 RMK A01
KHZD 150535Z AUTO 00000KT 10SM CLR 23/21 A3001 RMK A01
KHZD 150515Z AUTO 00000KT 10SM CLR 23/21 A3001 RMK A01
KHZD 150455Z AUTO 00000KT 10SM CLR 23/21 A3001 RMK A01
KHZD 150435Z AUTO 00000KT 10SM CLR 24/21 A3001 RMK A01
KHZD 150415Z AUTO 00000KT 10SM CLR 23/21 A3001 RMK A01
KHZD 150355Z AUTO 00000KT 10SM CLR 23/21 A3001 RMK A01
KHZD 150335Z AUTO 00000KT 10SM CLR 24/21 A3001 RMK A01
KHZD 150315Z AUTO 00000KT 10SM CLR 24/21 A3001 RMK A01
KHZD 150255Z AUTO 00000KT 10SM CLR 25/21 A3001 RMK A01
KHZD 150235Z AUTO 00000KT 10SM CLR 25/21 A3001 RMK A01
KHZD 150215Z AUTO 08003KT 10SM CLR 25/22 A3000 RMK A01
KHZD 150155Z AUTO 00000KT 10SM CLR 26/23 A3001 RMK A01
KHZD 150135Z AUTO 08004KT 10SM CLR 26/23 A3000 RMK A01
KHZD 150115Z AUTO 07003KT 10SM FEW055 27/24 A3000 RMK A01
KHZD 150055Z AUTO 00000KT 10SM BKN055 28/23 A3000 RMK A01
KHZD 150035Z AUTO 00000KT 10SM SCT055 28/24 A3000 RMK A01
KHZD 150015Z AUTO 00000KT 10SM CLR 29/24 A3000 RMK A01
KHZD 142355Z AUTO 00000KT 10SM CLR 30/21 A3000 RMK A01
KHZD 142335Z AUTO 00000KT 10SM CLR 31/21 A2999 RMK A01
KHZD 142315Z AUTO 00000KT 10SM FEW050 31/20 A2999 RMK A01
KHZD 142255Z AUTO 10004KT 10SM SCT050 31/20 A2999 RMK A01
KHZD 142235Z AUTO 00000KT 10SM CLR 32/19 A2999 RMK A01
KHZD 142215Z AUTO 12003KT 10SM CLR 32/20 A2999 RMK A01
KHZD 142155Z AUTO VRB04KT 10SM CLR 32/20 A2999 RMK A01
KHZD 142135Z AUTO VRB04KT 10SM CLR 32/20 A3000 RMK A01
KHZD 142115Z AUTO VRB04KT 10SM FEW050 FEW070 32/20 A2999 RMK A01
KHZD 142055Z AUTO 00000KT 10SM SCT050 BKN070 31/21 A3000 RMK A01
KHZD 142035Z AUTO VRB04KT 10SM SCT050 BKN065 BKN080 32/21 A3000 RMK A01
KHZD 142015Z AUTO 15003KT 10SM SCT050 SCT060 31/21 A3000 RMK A01
KHZD 141955Z AUTO 00000KT 10SM FEW050 32/20 A3001 RMK A01
KHZD 141935Z AUTO 05004KT 10SM SCT050 BKN060 31/21 A3001 RMK A01
KHZD 141915Z AUTO 13005G10KT 10SM CLR 31/20 A3001 RMK A01
KHZD 141855Z AUTO 10005KT 10SM FEW045 FEW060 31/21 A3001 RMK A01
KHZD 141835Z AUTO 11004KT 10SM SCT045 BKN055 30/20 A3001 RMK A01
KHZD 141815Z AUTO VRB03KT 10SM SCT044 SCT050 31/20 A3002 RMK A01
KHZD 141755Z AUTO 00000KT 10SM FEW047 FEW065 31/20 A3002 RMK A01
KHZD 141735Z AUTO VRB05KT 10SM SCT046 SCT050 SCT065 31/20 A3002 RMK A01
KHZD 141715Z AUTO 05004KT 10SM BKN045 29/20 A3003 RMK A01
KHZD 141655Z AUTO 04004KT 10SM SCT043 30/20 A3004 RMK A01
KHZD 141635Z AUTO 00000KT 10SM CLR 31/19 A3004 RMK A01
KHZD 141615Z AUTO VRB05G12KT 10SM CLR 30/19 A3003 RMK A01
KHZD 141555Z AUTO VRB04KT 10SM CLR 30/22 A3003 RMK A01
KHZD 141535Z AUTO 18005KT 10SM CLR 29/21 A3002 RMK A01
KHZD 141515Z AUTO 00000KT 10SM CLR 29/22 A3003 RMK A01
KHZD 141455Z AUTO 15004KT 10SM CLR 28/22 A3003 RMK A01
KHZD 141435Z AUTO 13004KT 10SM CLR 28/22 A3003 RMK A01
KHZD 141415Z AUTO 14004KT 10SM CLR 27/21 A3004 RMK A01
KHZD 141355Z AUTO 11005KT 10SM CLR 27/21 A3004 RMK A01
KHZD 141335Z AUTO 12006KT 10SM CLR 26/21 A3003 RMK A01
KHZD 141315Z AUTO 12004KT 10SM CLR 25/21 A3003 RMK A01
KHZD 141255Z AUTO 09004KT 10SM CLR 24/20 A3002 RMK A01
KHZD 141235Z AUTO 09004KT 10SM CLR 23/20 A3002 RMK A01
KHZD 141215Z AUTO 08004KT 10SM CLR 23/20 A3002 RMK A01
KHZD 141155Z AUTO 08004KT 10SM CLR 22/20 A3002 RMK A01
KHZD 141135Z AUTO 00000KT 10SM CLR 21/19 A3003 RMK A01
KHZD 141115Z AUTO 00000KT 10SM CLR 20/19 A3002 RMK A01
KHZD 141055Z AUTO 00000KT 10SM CLR 20/19 A3001 RMK A01
KHZD 141035Z AUTO 00000KT 10SM CLR 20/19 A3000 RMK A01
KHZD 141015Z AUTO 00000KT 10SM CLR 21/19 A2999 RMK A01
KHZD 140955Z AUTO 00000KT 10SM CLR 21/19 A2998 RMK A01
KHZD 140935Z AUTO 00000KT 10SM CLR 21/19 A2997 RMK A01
KHZD 140915Z AUTO 00000KT 10SM CLR 20/19 A2997 RMK A01
KHZD 140855Z AUTO 00000KT 10SM CLR 20/19 A2997 RMK A01
KHZD 140835Z AUTO 00000KT 10SM CLR 21/20 A2997 RMK A01
KHZD 140815Z AUTO 00000KT 10SM FEW049 FEW055 21/20 A2996 RMK A01
KHZD 140755Z AUTO 00000KT 10SM FEW049 FEW055 21/20 A2997 RMK A01
KHZD 140735Z AUTO 00000KT 10SM FEW055 21/20 A2996 RMK A01
KHZD 140715Z AUTO 00000KT 10SM CLR 21/20 A2997 RMK A01
KHZD 140655Z AUTO 00000KT 10SM CLR 22/20 A2997 RMK A01
KHZD 140635Z AUTO 00000KT 10SM CLR 22/20 A2997 RMK A01
KHZD 140615Z AUTO 00000KT 10SM CLR 22/20 A2998 RMK A01
KHZD 140555Z AUTO 00000KT 10SM CLR 23/20 A2997 RMK A01
KHZD 140535Z AUTO 05003KT 10SM FEW039 FEW048 23/20 A2998 RMK A01
KHZD 140515Z AUTO 06003KT 10SM FEW036 FEW048 23/20 A2997 RMK A01
KHZD 140455Z AUTO 06004KT 10SM CLR 23/21 A2997 RMK A01
KHZD 140435Z AUTO 07004KT 10SM CLR 23/21 A2997 RMK A01
KHZD 140415Z AUTO 06004KT 10SM CLR 23/21 A2997 RMK A01
KHZD 140355Z AUTO 05004KT 10SM CLR 24/21 A2996 RMK A01
KHZD 140335Z AUTO 05005KT 10SM CLR 24/21 A2996 RMK A01
KHZD 140315Z AUTO 05006KT 10SM CLR 24/21 A2996 RMK A01
KHZD 140255Z AUTO 00000KT 10SM CLR 23/22 A2995 RMK A01
KHZD 140235Z AUTO 00000KT 10SM CLR 23/22 A2995 RMK A01
KHZD 140215Z AUTO 00000KT 10SM CLR 23/22 A2994 RMK A01
KHZD 140155Z AUTO 00000KT 10SM CLR 24/22 A2994 RMK A01
KHZD 140135Z AUTO 00000KT 10SM CLR 25/22 A2994 RMK A01
KHZD 140115Z AUTO 00000KT 10SM CLR 26/23 A2993 RMK A01